sensor_id;sensor_type;location;lat;lon;timestamp;P1;durP1;ratioP1;P2;durP2;ratioP2
30000;SDS011;16845;48.670;9.000;2023-10-13T00:01:48;13.15;;;4.30;;
30000;SDS011;16845;48.670;9.000;2023-10-13T00:04:15;9.43;;;3.78;;
30000;SDS011;16845;48.670;9.000;2023-10-13T00:06:43;10.40;;;4.37;;
30000;SDS011;16845;48.670;9.000;2023-10-13T00:09:09;7.82;;;4.10;;
30000;SDS011;16845;48.670;9.000;2023-10-13T00:11:36;15.35;;;3.70;;
30000;SDS011;16845;48.670;9.000;2023-10-13T00:14:02;12.40;;;4.18;;
30000;SDS011;16845;48.670;9.000;2023-10-13T00:16:29;8.25;;;3.95;;
30000;SDS011;16845;48.670;9.000;2023-10-13T00:18:56;15.03;;;4.07;;
30000;SDS011;16845;48.670;9.000;2023-10-13T00:21:23;9.18;;;4.03;;
30000;SDS011;16845;48.670;9.000;2023-10-13T00:23:51;9.35;;;4.47;;
30000;SDS011;16845;48.670;9.000;2023-10-13T00:26:17;8.40;;;3.83;;
30000;SDS011;16845;48.670;9.000;2023-10-13T00:28:44;11.00;;;4.28;;
30000;SDS011;16845;48.670;9.000;2023-10-13T00:31:10;12.55;;;3.47;;
30000;SDS011;16845;48.670;9.000;2023-10-13T00:33:37;8.68;;;4.05;;
30000;SDS011;16845;48.670;9.000;2023-10-13T00:36:05;6.13;;;3.30;;
30000;SDS011;16845;48.670;9.000;2023-10-13T00:38:31;11.07;;;4.22;;
30000;SDS011;16845;48.670;9.000;2023-10-13T00:40:59;11.43;;;4.05;;
30000;SDS011;16845;48.670;9.000;2023-10-13T00:43:27;11.02;;;4.55;;
30000;SDS011;16845;48.670;9.000;2023-10-13T00:45:54;11.40;;;4.67;;
30000;SDS011;16845;48.670;9.000;2023-10-13T00:48:22;8.88;;;4.25;;
30000;SDS011;16845;48.670;9.000;2023-10-13T00:50:49;9.15;;;3.97;;
30000;SDS011;16845;48.670;9.000;2023-10-13T00:53:15;13.82;;;4.45;;
30000;SDS011;16845;48.670;9.000;2023-10-13T00:55:42;11.50;;;3.75;;
30000;SDS011;16845;48.670;9.000;2023-10-13T00:58:10;12.40;;;4.10;;
30000;SDS011;16845;48.670;9.000;2023-10-13T01:00:37;10.85;;;3.95;;
30000;SDS011;16845;48.670;9.000;2023-10-13T01:03:04;10.40;;;3.97;;
30000;SDS011;16845;48.670;9.000;2023-10-13T01:05:30;10.27;;;4.22;;
30000;SDS011;16845;48.670;9.000;2023-10-13T01:07:59;10.93;;;3.97;;
30000;SDS011;16845;48.670;9.000;2023-10-13T01:10:25;12.20;;;4.13;;
30000;SDS011;16845;48.670;9.000;2023-10-13T01:12:52;9.90;;;4.23;;
30000;SDS011;16845;48.670;9.000;2023-10-13T01:15:20;10.83;;;4.37;;
30000;SDS011;16845;48.670;9.000;2023-10-13T01:17:47;8.68;;;4.55;;
30000;SDS011;16845;48.670;9.000;2023-10-13T01:20:14;10.40;;;4.00;;
30000;SDS011;16845;48.670;9.000;2023-10-13T01:22:41;15.02;;;5.53;;
30000;SDS011;16845;48.670;9.000;2023-10-13T01:25:09;8.18;;;3.88;;
30000;SDS011;16845;48.670;9.000;2023-10-13T01:27:36;13.05;;;4.53;;
30000;SDS011;16845;48.670;9.000;2023-10-13T01:30:04;13.35;;;4.55;;
30000;SDS011;16845;48.670;9.000;2023-10-13T01:32:31;10.85;;;4.03;;
30000;SDS011;16845;48.670;9.000;2023-10-13T01:34:58;8.80;;;4.28;;
30000;SDS011;16845;48.670;9.000;2023-10-13T01:37:24;11.25;;;4.05;;
30000;SDS011;16845;48.670;9.000;2023-10-13T01:39:51;6.28;;;4.00;;
30000;SDS011;16845;48.670;9.000;2023-10-13T01:42:19;9.45;;;4.30;;
30000;SDS011;16845;48.670;9.000;2023-10-13T01:44:45;8.75;;;4.05;;
30000;SDS011;16845;48.670;9.000;2023-10-13T01:47:12;10.33;;;4.30;;
30000;SDS011;16845;48.670;9.000;2023-10-13T01:49:38;11.38;;;3.97;;
30000;SDS011;16845;48.670;9.000;2023-10-13T01:52:05;9.90;;;3.88;;
30000;SDS011;16845;48.670;9.000;2023-10-13T01:54:32;6.07;;;3.92;;
30000;SDS011;16845;48.670;9.000;2023-10-13T01:56:58;7.95;;;4.57;;
30000;SDS011;16845;48.670;9.000;2023-10-13T01:59:26;9.50;;;4.07;;
30000;SDS011;16845;48.670;9.000;2023-10-13T02:01:52;12.32;;;4.43;;
30000;SDS011;16845;48.670;9.000;2023-10-13T02:04:19;11.33;;;3.83;;
30000;SDS011;16845;48.670;9.000;2023-10-13T02:06:45;7.93;;;3.97;;
30000;SDS011;16845;48.670;9.000;2023-10-13T02:09:12;10.77;;;4.13;;
30000;SDS011;16845;48.670;9.000;2023-10-13T02:11:38;9.00;;;3.90;;
30000;SDS011;16845;48.670;9.000;2023-10-13T02:14:05;9.95;;;5.57;;
30000;SDS011;16845;48.670;9.000;2023-10-13T02:16:33;15.23;;;4.67;;
30000;SDS011;16845;48.670;9.000;2023-10-13T02:19:00;10.52;;;3.78;;
30000;SDS011;16845;48.670;9.000;2023-10-13T02:21:27;12.80;;;4.15;;
30000;SDS011;16845;48.670;9.000;2023-10-13T02:23:53;8.02;;;3.67;;
30000;SDS011;16845;48.670;9.000;2023-10-13T02:26:20;11.63;;;3.75;;
30000;SDS011;16845;48.670;9.000;2023-10-13T02:28:46;22.08;;;4.38;;
30000;SDS011;16845;48.670;9.000;2023-10-13T02:31:13;13.85;;;4.07;;
30000;SDS011;16845;48.670;9.000;2023-10-13T02:33:40;9.40;;;4.67;;
30000;SDS011;16845;48.670;9.000;2023-10-13T02:36:07;16.40;;;4.75;;
30000;SDS011;16845;48.670;9.000;2023-10-13T02:38:34;8.02;;;4.13;;
30000;SDS011;16845;48.670;9.000;2023-10-13T02:41:01;12.23;;;4.30;;
30000;SDS011;16845;48.670;9.000;2023-10-13T02:43:27;13.63;;;4.90;;
30000;SDS011;16845;48.670;9.000;2023-10-13T02:45:54;11.63;;;5.07;;
30000;SDS011;16845;48.670;9.000;2023-10-13T02:48:21;11.27;;;3.95;;
30000;SDS011;16845;48.670;9.000;2023-10-13T02:50:54;8.73;;;3.90;;
30000;SDS011;16845;48.670;9.000;2023-10-13T02:53:21;11.48;;;4.18;;
30000;SDS011;16845;48.670;9.000;2023-10-13T02:55:51;7.50;;;4.40;;
30000;SDS011;16845;48.670;9.000;2023-10-13T02:58:18;11.73;;;4.15;;
30000;SDS011;16845;48.670;9.000;2023-10-13T03:00:45;19.13;;;4.85;;
30000;SDS011;16845;48.670;9.000;2023-10-13T03:03:12;13.93;;;4.40;;
30000;SDS011;16845;48.670;9.000;2023-10-13T03:05:38;9.77;;;4.07;;
30000;SDS011;16845;48.670;9.000;2023-10-13T03:08:06;9.35;;;4.10;;
30000;SDS011;16845;48.670;9.000;2023-10-13T03:10:33;10.43;;;4.40;;
30000;SDS011;16845;48.670;9.000;2023-10-13T03:12:59;12.60;;;5.18;;
30000;SDS011;16845;48.670;9.000;2023-10-13T03:15:26;12.93;;;4.80;;
30000;SDS011;16845;48.670;9.000;2023-10-13T03:17:52;10.40;;;4.80;;
30000;SDS011;16845;48.670;9.000;2023-10-13T03:20:19;12.57;;;4.80;;
30000;SDS011;16845;48.670;9.000;2023-10-13T03:22:45;10.45;;;4.15;;
30000;SDS011;16845;48.670;9.000;2023-10-13T03:25:14;8.75;;;4.47;;
30000;SDS011;16845;48.670;9.000;2023-10-13T03:27:41;8.80;;;4.50;;
30000;SDS011;16845;48.670;9.000;2023-10-13T03:30:07;8.23;;;4.70;;
30000;SDS011;16845;48.670;9.000;2023-10-13T03:32:34;9.68;;;3.95;;
30000;SDS011;16845;48.670;9.000;2023-10-13T03:35:01;11.48;;;5.32;;
30000;SDS011;16845;48.670;9.000;2023-10-13T03:37:27;15.20;;;5.78;;
30000;SDS011;16845;48.670;9.000;2023-10-13T03:39:54;7.90;;;4.37;;
30000;SDS011;16845;48.670;9.000;2023-10-13T03:42:22;14.90;;;5.10;;
30000;SDS011;16845;48.670;9.000;2023-10-13T03:44:48;12.98;;;4.50;;
30000;SDS011;16845;48.670;9.000;2023-10-13T03:47:15;7.38;;;4.28;;
30000;SDS011;16845;48.670;9.000;2023-10-13T03:49:41;10.73;;;3.97;;
30000;SDS011;16845;48.670;9.000;2023-10-13T03:52:08;23.47;;;6.03;;
30000;SDS011;16845;48.670;9.000;2023-10-13T03:54:34;9.85;;;4.45;;
30000;SDS011;16845;48.670;9.000;2023-10-13T03:57:01;7.28;;;4.57;;
30000;SDS011;16845;48.670;9.000;2023-10-13T03:59:29;10.03;;;5.00;;
30000;SDS011;16845;48.670;9.000;2023-10-13T04:01:56;9.90;;;4.78;;
30000;SDS011;16845;48.670;9.000;2023-10-13T04:04:22;9.40;;;4.17;;
30000;SDS011;16845;48.670;9.000;2023-10-13T04:06:50;9.63;;;4.63;;
30000;SDS011;16845;48.670;9.000;2023-10-13T04:09:17;9.85;;;4.45;;
30000;SDS011;16845;48.670;9.000;2023-10-13T04:11:44;10.88;;;4.63;;
30000;SDS011;16845;48.670;9.000;2023-10-13T04:14:11;11.85;;;4.45;;
30000;SDS011;16845;48.670;9.000;2023-10-13T04:16:38;16.00;;;4.72;;
30000;SDS011;16845;48.670;9.000;2023-10-13T04:19:05;9.50;;;4.32;;
30000;SDS011;16845;48.670;9.000;2023-10-13T04:21:32;13.35;;;4.57;;
30000;SDS011;16845;48.670;9.000;2023-10-13T04:23:58;11.18;;;5.47;;
30000;SDS011;16845;48.670;9.000;2023-10-13T04:26:25;7.72;;;3.90;;
30000;SDS011;16845;48.670;9.000;2023-10-13T04:28:51;9.65;;;4.35;;
30000;SDS011;16845;48.670;9.000;2023-10-13T04:31:18;8.68;;;5.32;;
30000;SDS011;16845;48.670;9.000;2023-10-13T04:33:45;13.13;;;4.73;;
30000;SDS011;16845;48.670;9.000;2023-10-13T04:36:12;7.50;;;4.20;;
30000;SDS011;16845;48.670;9.000;2023-10-13T04:38:40;6.93;;;4.15;;
30000;SDS011;16845;48.670;9.000;2023-10-13T04:41:07;17.35;;;4.88;;
30000;SDS011;16845;48.670;9.000;2023-10-13T04:43:33;13.10;;;4.32;;
30000;SDS011;16845;48.670;9.000;2023-10-13T04:45:59;19.67;;;5.10;;
30000;SDS011;16845;48.670;9.000;2023-10-13T04:48:26;6.30;;;4.45;;
30000;SDS011;16845;48.670;9.000;2023-10-13T04:50:58;12.93;;;4.90;;
30000;SDS011;16845;48.670;9.000;2023-10-13T04:53:26;9.82;;;3.92;;
30000;SDS011;16845;48.670;9.000;2023-10-13T04:55:52;10.77;;;4.45;;
30000;SDS011;16845;48.670;9.000;2023-10-13T04:58:19;13.73;;;4.93;;
30000;SDS011;16845;48.670;9.000;2023-10-13T05:00:46;11.23;;;4.15;;
30000;SDS011;16845;48.670;9.000;2023-10-13T05:03:12;8.82;;;4.10;;
30000;SDS011;16845;48.670;9.000;2023-10-13T05:05:41;13.63;;;4.67;;
30000;SDS011;16845;48.670;9.000;2023-10-13T05:08:10;13.65;;;5.25;;
30000;SDS011;16845;48.670;9.000;2023-10-13T05:10:37;9.38;;;4.53;;
30000;SDS011;16845;48.670;9.000;2023-10-13T05:13:04;12.23;;;5.30;;
30000;SDS011;16845;48.670;9.000;2023-10-13T05:15:30;10.38;;;4.78;;
30000;SDS011;16845;48.670;9.000;2023-10-13T05:17:57;11.43;;;4.88;;
30000;SDS011;16845;48.670;9.000;2023-10-13T05:20:23;6.70;;;4.13;;
30000;SDS011;16845;48.670;9.000;2023-10-13T05:22:50;9.40;;;4.65;;
30000;SDS011;16845;48.670;9.000;2023-10-13T05:25:17;7.90;;;4.47;;
30000;SDS011;16845;48.670;9.000;2023-10-13T05:27:44;11.98;;;4.90;;
30000;SDS011;16845;48.670;9.000;2023-10-13T05:30:11;12.90;;;3.92;;
30000;SDS011;16845;48.670;9.000;2023-10-13T05:35:06;9.23;;;3.95;;
30000;SDS011;16845;48.670;9.000;2023-10-13T05:37:33;11.00;;;4.72;;
30000;SDS011;16845;48.670;9.000;2023-10-13T05:39:59;15.70;;;5.07;;
30000;SDS011;16845;48.670;9.000;2023-10-13T05:42:27;10.05;;;4.45;;
30000;SDS011;16845;48.670;9.000;2023-10-13T05:44:54;14.43;;;5.30;;
30000;SDS011;16845;48.670;9.000;2023-10-13T05:47:20;11.52;;;4.40;;
30000;SDS011;16845;48.670;9.000;2023-10-13T05:49:47;19.57;;;4.50;;
30000;SDS011;16845;48.670;9.000;2023-10-13T05:52:13;14.45;;;4.97;;
30000;SDS011;16845;48.670;9.000;2023-10-13T05:54:40;12.45;;;5.18;;
30000;SDS011;16845;48.670;9.000;2023-10-13T05:57:07;10.48;;;4.47;;
30000;SDS011;16845;48.670;9.000;2023-10-13T05:59:35;13.10;;;5.40;;
30000;SDS011;16845;48.670;9.000;2023-10-13T06:02:02;7.28;;;4.25;;
30000;SDS011;16845;48.670;9.000;2023-10-13T06:04:29;10.90;;;4.87;;
30000;SDS011;16845;48.670;9.000;2023-10-13T06:06:55;10.33;;;5.63;;
30000;SDS011;16845;48.670;9.000;2023-10-13T06:09:22;10.00;;;4.60;;
30000;SDS011;16845;48.670;9.000;2023-10-13T06:11:49;12.63;;;4.40;;
30000;SDS011;16845;48.670;9.000;2023-10-13T06:14:16;10.48;;;4.35;;
30000;SDS011;16845;48.670;9.000;2023-10-13T06:16:43;13.18;;;5.15;;
30000;SDS011;16845;48.670;9.000;2023-10-13T06:19:10;11.02;;;4.43;;
30000;SDS011;16845;48.670;9.000;2023-10-13T06:21:37;10.23;;;4.97;;
30000;SDS011;16845;48.670;9.000;2023-10-13T06:24:04;10.23;;;4.40;;
30000;SDS011;16845;48.670;9.000;2023-10-13T06:26:31;9.70;;;4.38;;
30000;SDS011;16845;48.670;9.000;2023-10-13T06:28:57;12.52;;;4.60;;
30000;SDS011;16845;48.670;9.000;2023-10-13T06:31:24;8.85;;;4.53;;
30000;SDS011;16845;48.670;9.000;2023-10-13T06:33:52;17.17;;;4.72;;
30000;SDS011;16845;48.670;9.000;2023-10-13T06:36:18;10.18;;;4.05;;
30000;SDS011;16845;48.670;9.000;2023-10-13T06:38:45;7.43;;;4.40;;
30000;SDS011;16845;48.670;9.000;2023-10-13T06:41:11;8.15;;;4.85;;
30000;SDS011;16845;48.670;9.000;2023-10-13T06:43:38;9.95;;;4.28;;
30000;SDS011;16845;48.670;9.000;2023-10-13T06:46:05;12.82;;;5.30;;
30000;SDS011;16845;48.670;9.000;2023-10-13T06:48:32;8.93;;;5.13;;
30000;SDS011;16845;48.670;9.000;2023-10-13T06:51:00;10.57;;;4.13;;
30000;SDS011;16845;48.670;9.000;2023-10-13T06:53:26;11.75;;;4.53;;
30000;SDS011;16845;48.670;9.000;2023-10-13T06:55:53;9.52;;;5.00;;
30000;SDS011;16845;48.670;9.000;2023-10-13T06:58:19;10.23;;;4.53;;
30000;SDS011;16845;48.670;9.000;2023-10-13T07:00:46;10.68;;;4.25;;
30000;SDS011;16845;48.670;9.000;2023-10-13T07:03:13;8.05;;;4.30;;
30000;SDS011;16845;48.670;9.000;2023-10-13T07:05:39;15.50;;;5.43;;
30000;SDS011;16845;48.670;9.000;2023-10-13T07:08:07;16.13;;;5.15;;
30000;SDS011;16845;48.670;9.000;2023-10-13T07:10:35;13.32;;;5.07;;
30000;SDS011;16845;48.670;9.000;2023-10-13T07:13:02;11.55;;;4.25;;
30000;SDS011;16845;48.670;9.000;2023-10-13T07:15:28;6.33;;;4.13;;
30000;SDS011;16845;48.670;9.000;2023-10-13T07:17:55;7.47;;;4.28;;
30000;SDS011;16845;48.670;9.000;2023-10-13T07:20:21;12.80;;;4.95;;
30000;SDS011;16845;48.670;9.000;2023-10-13T07:22:48;17.17;;;4.35;;
30000;SDS011;16845;48.670;9.000;2023-10-13T07:25:16;12.80;;;4.53;;
30000;SDS011;16845;48.670;9.000;2023-10-13T07:27:43;11.23;;;3.97;;
30000;SDS011;16845;48.670;9.000;2023-10-13T07:30:09;12.90;;;4.25;;
30000;SDS011;16845;48.670;9.000;2023-10-13T07:32:37;12.40;;;4.10;;
30000;SDS011;16845;48.670;9.000;2023-10-13T07:35:04;13.40;;;3.57;;
30000;SDS011;16845;48.670;9.000;2023-10-13T07:39:57;9.77;;;3.33;;
30000;SDS011;16845;48.670;9.000;2023-10-13T07:42:26;13.43;;;3.90;;
30000;SDS011;16845;48.670;9.000;2023-10-13T07:44:52;11.13;;;3.90;;
30000;SDS011;16845;48.670;9.000;2023-10-13T07:47:19;19.37;;;4.93;;
30000;SDS011;16845;48.670;9.000;2023-10-13T07:49:45;12.88;;;3.92;;
30000;SDS011;16845;48.670;9.000;2023-10-13T07:52:12;8.40;;;4.00;;
30000;SDS011;16845;48.670;9.000;2023-10-13T07:54:40;10.88;;;4.13;;
30000;SDS011;16845;48.670;9.000;2023-10-13T07:57:08;13.45;;;4.30;;
30000;SDS011;16845;48.670;9.000;2023-10-13T07:59:35;7.75;;;3.78;;
30000;SDS011;16845;48.670;9.000;2023-10-13T08:02:02;21.08;;;4.32;;
30000;SDS011;16845;48.670;9.000;2023-10-13T08:04:29;12.73;;;4.40;;
30000;SDS011;16845;48.670;9.000;2023-10-13T08:06:55;8.10;;;3.78;;
30000;SDS011;16845;48.670;9.000;2023-10-13T08:09:22;8.48;;;3.72;;
30000;SDS011;16845;48.670;9.000;2023-10-13T08:11:49;6.15;;;2.95;;
30000;SDS011;16845;48.670;9.000;2023-10-13T08:14:15;6.53;;;3.30;;
30000;SDS011;16845;48.670;9.000;2023-10-13T08:17:03;9.45;;;3.75;;
30000;SDS011;16845;48.670;9.000;2023-10-13T08:19:30;12.68;;;3.30;;
30000;SDS011;16845;48.670;9.000;2023-10-13T08:21:57;14.90;;;4.37;;
30000;SDS011;16845;48.670;9.000;2023-10-13T08:24:25;9.90;;;3.95;;
30000;SDS011;16845;48.670;9.000;2023-10-13T08:26:52;19.42;;;4.40;;
30000;SDS011;16845;48.670;9.000;2023-10-13T08:29:19;14.45;;;3.78;;
30000;SDS011;16845;48.670;9.000;2023-10-13T08:31:46;11.32;;;3.63;;
30000;SDS011;16845;48.670;9.000;2023-10-13T08:34:15;13.75;;;4.97;;
30000;SDS011;16845;48.670;9.000;2023-10-13T08:36:41;9.10;;;3.25;;
30000;SDS011;16845;48.670;9.000;2023-10-13T08:39:08;17.00;;;6.07;;
30000;SDS011;16845;48.670;9.000;2023-10-13T08:41:34;10.27;;;3.53;;
30000;SDS011;16845;48.670;9.000;2023-10-13T08:44:02;11.73;;;3.70;;
30000;SDS011;16845;48.670;9.000;2023-10-13T08:46:30;7.68;;;3.17;;
30000;SDS011;16845;48.670;9.000;2023-10-13T08:48:57;10.82;;;3.67;;
30000;SDS011;16845;48.670;9.000;2023-10-13T08:51:26;10.38;;;3.38;;
30000;SDS011;16845;48.670;9.000;2023-10-13T08:53:52;10.23;;;3.80;;
30000;SDS011;16845;48.670;9.000;2023-10-13T08:56:21;16.42;;;5.18;;
30000;SDS011;16845;48.670;9.000;2023-10-13T08:58:48;14.88;;;3.88;;
30000;SDS011;16845;48.670;9.000;2023-10-13T09:01:15;13.95;;;3.65;;
30000;SDS011;16845;48.670;9.000;2023-10-13T09:03:42;7.95;;;3.58;;
30000;SDS011;16845;48.670;9.000;2023-10-13T09:06:10;10.13;;;3.83;;
30000;SDS011;16845;48.670;9.000;2023-10-13T09:08:40;11.82;;;3.58;;
30000;SDS011;16845;48.670;9.000;2023-10-13T09:11:07;10.65;;;3.47;;
30000;SDS011;16845;48.670;9.000;2023-10-13T09:13:34;10.67;;;4.10;;
30000;SDS011;16845;48.670;9.000;2023-10-13T09:16:08;11.73;;;4.25;;
30000;SDS011;16845;48.670;9.000;2023-10-13T09:18:35;9.00;;;3.42;;
30000;SDS011;16845;48.670;9.000;2023-10-13T09:21:02;14.63;;;3.63;;
30000;SDS011;16845;48.670;9.000;2023-10-13T09:23:28;7.77;;;3.63;;
30000;SDS011;16845;48.670;9.000;2023-10-13T09:25:56;10.18;;;4.15;;
30000;SDS011;16845;48.670;9.000;2023-10-13T09:28:34;19.55;;;4.10;;
30000;SDS011;16845;48.670;9.000;2023-10-13T09:31:01;15.88;;;3.97;;
30000;SDS011;16845;48.670;9.000;2023-10-13T09:33:28;12.00;;;3.77;;
30000;SDS011;16845;48.670;9.000;2023-10-13T09:35:55;13.38;;;3.83;;
30000;SDS011;16845;48.670;9.000;2023-10-13T09:38:22;9.77;;;3.90;;
30000;SDS011;16845;48.670;9.000;2023-10-13T09:40:49;16.02;;;3.30;;
30000;SDS011;16845;48.670;9.000;2023-10-13T09:43:17;13.52;;;3.28;;
30000;SDS011;16845;48.670;9.000;2023-10-13T09:45:45;8.52;;;3.08;;
30000;SDS011;16845;48.670;9.000;2023-10-13T09:48:13;12.15;;;3.30;;
30000;SDS011;16845;48.670;9.000;2023-10-13T09:50:43;8.85;;;3.63;;
30000;SDS011;16845;48.670;9.000;2023-10-13T09:53:10;11.23;;;3.45;;
30000;SDS011;16845;48.670;9.000;2023-10-13T09:55:38;12.82;;;3.85;;
30000;SDS011;16845;48.670;9.000;2023-10-13T09:58:08;10.32;;;3.33;;
30000;SDS011;16845;48.670;9.000;2023-10-13T10:00:42;10.45;;;4.22;;
30000;SDS011;16845;48.670;9.000;2023-10-13T10:03:11;13.15;;;3.33;;
30000;SDS011;16845;48.670;9.000;2023-10-13T10:05:37;7.85;;;3.67;;
30000;SDS011;16845;48.670;9.000;2023-10-13T10:08:04;15.33;;;3.90;;
30000;SDS011;16845;48.670;9.000;2023-10-13T10:10:37;12.93;;;3.90;;
30000;SDS011;16845;48.670;9.000;2023-10-13T10:13:15;9.70;;;3.72;;
30000;SDS011;16845;48.670;9.000;2023-10-13T10:15:53;10.88;;;3.20;;
30000;SDS011;16845;48.670;9.000;2023-10-13T10:18:23;13.00;;;3.67;;
30000;SDS011;16845;48.670;9.000;2023-10-13T10:20:50;15.40;;;3.57;;
30000;SDS011;16845;48.670;9.000;2023-10-13T10:23:23;11.38;;;3.65;;
30000;SDS011;16845;48.670;9.000;2023-10-13T10:25:51;19.50;;;3.28;;
30000;SDS011;16845;48.670;9.000;2023-10-13T10:28:17;14.02;;;3.05;;
30000;SDS011;16845;48.670;9.000;2023-10-13T10:30:44;14.38;;;3.22;;
30000;SDS011;16845;48.670;9.000;2023-10-13T10:33:12;17.58;;;3.80;;
30000;SDS011;16845;48.670;9.000;2023-10-13T10:35:39;5.93;;;3.08;;
30000;SDS011;16845;48.670;9.000;2023-10-13T10:40:33;11.45;;;3.10;;
30000;SDS011;16845;48.670;9.000;2023-10-13T10:43:00;11.77;;;2.92;;
30000;SDS011;16845;48.670;9.000;2023-10-13T10:45:27;11.65;;;3.20;;
30000;SDS011;16845;48.670;9.000;2023-10-13T10:47:53;9.83;;;2.93;;
30000;SDS011;16845;48.670;9.000;2023-10-13T10:50:26;6.35;;;3.35;;
30000;SDS011;16845;48.670;9.000;2023-10-13T10:52:53;8.50;;;3.25;;
30000;SDS011;16845;48.670;9.000;2023-10-13T10:55:20;8.73;;;2.70;;
30000;SDS011;16845;48.670;9.000;2023-10-13T10:57:46;14.50;;;3.80;;
30000;SDS011;16845;48.670;9.000;2023-10-13T11:00:17;13.47;;;4.20;;
30000;SDS011;16845;48.670;9.000;2023-10-13T11:02:52;13.68;;;3.72;;
30000;SDS011;16845;48.670;9.000;2023-10-13T11:05:19;14.10;;;3.10;;
30000;SDS011;16845;48.670;9.000;2023-10-13T11:07:47;14.32;;;3.63;;
30000;SDS011;16845;48.670;9.000;2023-10-13T11:10:14;11.00;;;4.70;;
30000;SDS011;16845;48.670;9.000;2023-10-13T11:12:52;13.07;;;3.20;;
30000;SDS011;16845;48.670;9.000;2023-10-13T11:15:20;9.75;;;3.25;;
30000;SDS011;16845;48.670;9.000;2023-10-13T11:17:47;12.15;;;3.80;;
30000;SDS011;16845;48.670;9.000;2023-10-13T11:20:16;9.35;;;3.15;;
30000;SDS011;16845;48.670;9.000;2023-10-13T11:22:49;12.55;;;3.65;;
30000;SDS011;16845;48.670;9.000;2023-10-13T11:25:20;7.75;;;3.47;;
30000;SDS011;16845;48.670;9.000;2023-10-13T11:27:48;12.45;;;3.65;;
30000;SDS011;16845;48.670;9.000;2023-10-13T11:30:14;14.20;;;3.20;;
30000;SDS011;16845;48.670;9.000;2023-10-13T11:35:08;8.43;;;4.00;;
30000;SDS011;16845;48.670;9.000;2023-10-13T11:37:35;12.60;;;3.08;;
30000;SDS011;16845;48.670;9.000;2023-10-13T11:40:03;12.20;;;4.03;;
30000;SDS011;16845;48.670;9.000;2023-10-13T11:42:30;9.40;;;3.58;;
30000;SDS011;16845;48.670;9.000;2023-10-13T11:44:56;16.23;;;3.47;;
30000;SDS011;16845;48.670;9.000;2023-10-13T11:47:23;8.40;;;3.53;;
30000;SDS011;16845;48.670;9.000;2023-10-13T11:49:50;14.25;;;3.70;;
30000;SDS011;16845;48.670;9.000;2023-10-13T11:52:17;15.98;;;5.15;;
30000;SDS011;16845;48.670;9.000;2023-10-13T11:54:43;10.60;;;3.42;;
30000;SDS011;16845;48.670;9.000;2023-10-13T11:57:11;6.32;;;3.58;;
30000;SDS011;16845;48.670;9.000;2023-10-13T11:59:38;10.73;;;4.22;;
30000;SDS011;16845;48.670;9.000;2023-10-13T12:02:04;9.43;;;3.50;;
30000;SDS011;16845;48.670;9.000;2023-10-13T12:04:31;9.85;;;4.15;;
30000;SDS011;16845;48.670;9.000;2023-10-13T12:09:25;9.38;;;2.97;;
30000;SDS011;16845;48.670;9.000;2023-10-13T12:11:51;7.50;;;3.23;;
30000;SDS011;16845;48.670;9.000;2023-10-13T12:14:19;11.10;;;3.03;;
30000;SDS011;16845;48.670;9.000;2023-10-13T12:16:46;13.05;;;3.67;;
30000;SDS011;16845;48.670;9.000;2023-10-13T12:19:13;10.10;;;3.45;;
30000;SDS011;16845;48.670;9.000;2023-10-13T12:21:41;8.77;;;3.20;;
30000;SDS011;16845;48.670;9.000;2023-10-13T12:24:08;7.78;;;3.55;;
30000;SDS011;16845;48.670;9.000;2023-10-13T12:26:35;9.40;;;3.08;;
30000;SDS011;16845;48.670;9.000;2023-10-13T12:29:01;6.72;;;3.20;;
30000;SDS011;16845;48.670;9.000;2023-10-13T12:31:29;13.10;;;3.13;;
30000;SDS011;16845;48.670;9.000;2023-10-13T12:33:56;6.70;;;3.25;;
30000;SDS011;16845;48.670;9.000;2023-10-13T12:36:22;10.77;;;3.55;;
30000;SDS011;16845;48.670;9.000;2023-10-13T12:38:49;12.70;;;2.95;;
30000;SDS011;16845;48.670;9.000;2023-10-13T12:41:15;8.13;;;3.15;;
30000;SDS011;16845;48.670;9.000;2023-10-13T12:43:59;10.48;;;3.92;;
30000;SDS011;16845;48.670;9.000;2023-10-13T12:46:26;9.68;;;3.63;;
30000;SDS011;16845;48.670;9.000;2023-10-13T12:48:54;12.35;;;3.35;;
30000;SDS011;16845;48.670;9.000;2023-10-13T12:51:20;6.75;;;3.17;;
30000;SDS011;16845;48.670;9.000;2023-10-13T12:53:48;8.85;;;3.38;;
30000;SDS011;16845;48.670;9.000;2023-10-13T12:56:15;11.07;;;3.40;;
30000;SDS011;16845;48.670;9.000;2023-10-13T12:58:42;15.48;;;4.35;;
30000;SDS011;16845;48.670;9.000;2023-10-13T13:01:09;9.48;;;3.20;;
30000;SDS011;16845;48.670;9.000;2023-10-13T13:03:36;10.55;;;3.55;;
30000;SDS011;16845;48.670;9.000;2023-10-13T13:06:04;9.23;;;2.85;;
30000;SDS011;16845;48.670;9.000;2023-10-13T13:08:31;9.13;;;2.67;;
30000;SDS011;16845;48.670;9.000;2023-10-13T13:10:57;10.82;;;3.83;;
30000;SDS011;16845;48.670;9.000;2023-10-13T13:13:24;7.88;;;2.88;;
30000;SDS011;16845;48.670;9.000;2023-10-13T13:15:51;8.63;;;3.13;;
30000;SDS011;16845;48.670;9.000;2023-10-13T13:18:17;11.18;;;3.47;;
30000;SDS011;16845;48.670;9.000;2023-10-13T13:20:44;12.45;;;3.67;;
30000;SDS011;16845;48.670;9.000;2023-10-13T13:23:12;8.57;;;3.25;;
30000;SDS011;16845;48.670;9.000;2023-10-13T13:25:40;8.15;;;3.17;;
30000;SDS011;16845;48.670;9.000;2023-10-13T13:28:07;16.63;;;3.65;;
30000;SDS011;16845;48.670;9.000;2023-10-13T13:30:33;7.75;;;4.05;;
30000;SDS011;16845;48.670;9.000;2023-10-13T13:33:00;10.38;;;2.90;;
30000;SDS011;16845;48.670;9.000;2023-10-13T13:35:26;11.20;;;3.95;;
30000;SDS011;16845;48.670;9.000;2023-10-13T13:37:53;8.95;;;3.30;;
30000;SDS011;16845;48.670;9.000;2023-10-13T13:40:21;14.45;;;3.33;;
30000;SDS011;16845;48.670;9.000;2023-10-13T13:42:47;7.22;;;3.28;;
30000;SDS011;16845;48.670;9.000;2023-10-13T13:45:14;10.07;;;3.42;;
30000;SDS011;16845;48.670;9.000;2023-10-13T13:47:41;11.70;;;3.30;;
30000;SDS011;16845;48.670;9.000;2023-10-13T13:50:08;7.10;;;2.83;;
30000;SDS011;16845;48.670;9.000;2023-10-13T13:52:35;11.20;;;3.42;;
30000;SDS011;16845;48.670;9.000;2023-10-13T13:55:01;12.13;;;3.65;;
30000;SDS011;16845;48.670;9.000;2023-10-13T13:57:29;11.23;;;3.28;;
30000;SDS011;16845;48.670;9.000;2023-10-13T13:59:56;12.75;;;3.60;;
30000;SDS011;16845;48.670;9.000;2023-10-13T14:02:22;6.35;;;2.97;;
30000;SDS011;16845;48.670;9.000;2023-10-13T14:04:49;8.13;;;2.47;;
30000;SDS011;16845;48.670;9.000;2023-10-13T14:07:17;11.30;;;2.85;;
30000;SDS011;16845;48.670;9.000;2023-10-13T14:09:43;8.23;;;2.83;;
30000;SDS011;16845;48.670;9.000;2023-10-13T14:12:10;10.43;;;2.17;;
30000;SDS011;16845;48.670;9.000;2023-10-13T14:14:38;7.17;;;2.50;;
30000;SDS011;16845;48.670;9.000;2023-10-13T14:17:04;5.43;;;2.78;;
30000;SDS011;16845;48.670;9.000;2023-10-13T14:19:31;13.57;;;3.13;;
30000;SDS011;16845;48.670;9.000;2023-10-13T14:21:58;6.75;;;2.10;;
30000;SDS011;16845;48.670;9.000;2023-10-13T14:24:25;7.15;;;3.38;;
30000;SDS011;16845;48.670;9.000;2023-10-13T14:29:19;8.80;;;2.78;;
30000;SDS011;16845;48.670;9.000;2023-10-13T14:31:46;9.23;;;3.03;;
30000;SDS011;16845;48.670;9.000;2023-10-13T14:34:13;4.18;;;2.47;;
30000;SDS011;16845;48.670;9.000;2023-10-13T14:36:40;8.63;;;3.13;;
30000;SDS011;16845;48.670;9.000;2023-10-13T14:39:06;6.15;;;2.58;;
30000;SDS011;16845;48.670;9.000;2023-10-13T14:41:33;7.80;;;2.60;;
30000;SDS011;16845;48.670;9.000;2023-10-13T14:43:59;6.80;;;2.43;;
30000;SDS011;16845;48.670;9.000;2023-10-13T14:46:26;9.27;;;2.57;;
30000;SDS011;16845;48.670;9.000;2023-10-13T14:48:54;8.43;;;2.63;;
30000;SDS011;16845;48.670;9.000;2023-10-13T14:51:20;11.48;;;3.05;;
30000;SDS011;16845;48.670;9.000;2023-10-13T14:53:47;6.60;;;3.20;;
30000;SDS011;16845;48.670;9.000;2023-10-13T14:56:17;7.93;;;2.78;;